Time;durP1;ratioP1;P1;durP2;ratioP2;P2;SDS_P1;SDS_P2;PMS_P1;PMS_P2;Temp;Humidity;BMP_temperature;BMP_pressure;BME280_temperature;BME280_humidity;BME280_pressure;Samples;Min_cycle;Max_cycle;Signal;HPM_P1;HPM_P2
2023/01/02 00:01:30;;;;;;;17.48;8.48;;;;;;;3.00;100.00;96029.88;5118229;28;20201;-78
2023/01/02 00:03:59;;;;;;;18.30;8.63;;;;;;;2.93;100.00;96026.56;5120571;28;20194;-78
2023/01/02 00:06:32;;;;;;;23.63;10.70;;;;;;;2.99;100.00;96022.91;5122982;28;20249;-78
2023/01/02 00:08:59;;;;;;;27.40;9.60;;;;;;;2.98;100.00;96016.75;5129307;28;20674;-77
2023/01/02 00:11:26;;;;;;;15.95;7.07;;;;;;;2.87;100.00;96019.53;5128621;28;20254;-77
2023/01/02 00:13:54;;;;;;;15.65;7.20;;;;;;;2.92;100.00;96016.91;5109998;28;20612;-80
2023/01/02 00:16:22;;;;;;;12.30;6.55;;;;;;;2.86;100.00;96016.03;5120036;28;20293;-78
2023/01/02 00:18:49;;;;;;;20.38;7.72;;;;;;;2.88;100.00;96019.25;5128933;28;20273;-77
2023/01/02 00:21:16;;;;;;;15.77;6.82;;;;;;;2.82;100.00;96007.66;5116921;28;20197;-77
2023/01/02 00:23:43;;;;;;;13.90;6.40;;;;;;;2.93;100.00;96016.66;5121909;27;20209;-78
2023/01/02 00:26:10;;;;;;;19.05;8.00;;;;;;;2.87;100.00;96009.59;5112460;28;20212;-78
2023/01/02 00:28:38;;;;;;;14.82;8.10;;;;;;;2.93;100.00;96007.81;5125556;27;20205;-78
2023/01/02 00:31:11;;;;;;;23.50;9.85;;;;;;;2.92;100.00;96008.88;5124953;27;20197;-78
2023/01/02 00:33:38;;;;;;;17.92;7.65;;;;;;;2.92;100.00;96016.91;5119192;27;20205;-79
2023/01/02 00:36:08;;;;;;;18.60;7.50;;;;;;;2.89;100.00;96017.38;5132614;27;20297;-79
2023/01/02 00:38:35;;;;;;;19.17;6.45;;;;;;;2.85;100.00;96017.91;5119672;27;20204;-78
2023/01/02 00:41:03;;;;;;;18.40;8.50;;;;;;;2.71;100.00;96016.59;5119130;27;20205;-79
2023/01/02 00:43:30;;;;;;;23.45;7.78;;;;;;;2.77;100.00;96020.97;5133707;27;20225;-78
2023/01/02 00:45:57;;;;;;;23.52;8.68;;;;;;;2.76;100.00;96019.34;5132311;27;20220;-78
2023/01/02 00:48:25;;;;;;;19.42;8.65;;;;;;;2.75;100.00;96016.91;5120879;27;20871;-79
2023/01/02 00:50:52;;;;;;;16.77;8.82;;;;;;;2.76;100.00;96018.53;5133349;27;20197;-76
2023/01/02 00:53:19;;;;;;;14.77;8.95;;;;;;;2.78;100.00;96017.22;5124880;27;20262;-78
2023/01/02 00:55:46;;;;;;;13.27;7.18;;;;;;;2.71;100.00;96021.94;5126579;27;20286;-77
2023/01/02 00:58:13;;;;;;;17.95;6.22;;;;;;;2.73;100.00;96025.16;5121065;27;20257;-78
2023/01/02 01:00:40;;;;;;;15.23;6.20;;;;;;;2.78;100.00;96021.78;5126256;27;20208;-78
2023/01/02 01:03:07;;;;;;;12.80;6.38;;;;;;;2.82;100.00;96020.25;5121508;27;20209;-79
2023/01/02 01:05:38;;;;;;;9.23;5.05;;;;;;;2.79;100.00;96013.50;5119375;27;20679;-78
2023/01/02 01:08:06;;;;;;;12.43;6.57;;;;;;;2.78;100.00;96017.22;5132765;27;20636;-79
2023/01/02 01:10:33;;;;;;;9.77;6.53;;;;;;;2.73;100.00;96017.16;5119190;27;20229;-78
2023/01/02 01:13:00;;;;;;;12.68;5.75;;;;;;;2.67;100.00;96020.81;5122565;27;20205;-78
2023/01/02 01:15:26;;;;;;;13.32;5.97;;;;;;;2.69;100.00;96016.03;5111937;28;20287;-78
2023/01/02 01:17:53;;;;;;;16.75;4.78;;;;;;;2.66;100.00;96016.50;5122979;27;20193;-78
2023/01/02 01:20:20;;;;;;;12.18;5.32;;;;;;;2.63;100.00;96014.31;5129182;27;20292;-79
2023/01/02 01:22:48;;;;;;;11.80;5.68;;;;;;;2.52;100.00;96012.53;5122837;27;20246;-78
2023/01/02 01:25:15;;;;;;;12.35;5.25;;;;;;;2.56;100.00;96013.69;5128153;27;20308;-79
2023/01/02 01:27:41;;;;;;;6.35;3.78;;;;;;;2.64;100.00;96013.25;5123158;27;20205;-77
2023/01/02 01:30:09;;;;;;;7.60;5.15;;;;;;;2.51;100.00;96021.59;5119258;27;20201;-79
2023/01/02 01:32:36;;;;;;;8.20;4.85;;;;;;;2.50;100.00;96020.81;5121354;27;20197;-78
2023/01/02 01:35:03;;;;;;;10.50;4.75;;;;;;;2.50;100.00;96018.13;5125641;27;20209;-78
2023/01/02 01:37:30;;;;;;;11.45;5.50;;;;;;;2.45;100.00;96018.06;5123766;27;20233;-76
2023/01/02 01:39:58;;;;;;;10.50;4.63;;;;;;;2.52;100.00;96017.88;5117904;27;20200;-78
2023/01/02 01:42:25;;;;;;;9.27;4.68;;;;;;;2.67;100.00;96015.47;5132577;27;20237;-78
2023/01/02 01:44:54;;;;;;;33.88;6.20;;;;;;;2.70;100.00;95993.56;5112910;27;20983;-78
2023/01/02 01:47:31;;;;;;;11.27;5.18;;;;;;;2.55;100.00;96001.34;5124291;27;20197;-78
2023/01/02 01:50:02;;;;;;;21.35;7.65;;;;;;;2.64;100.00;96004.44;5119036;27;20616;-78
2023/01/02 01:52:33;;;;;;;16.58;7.53;;;;;;;2.64;100.00;96004.44;5132282;27;20189;-78
2023/01/02 01:55:09;;;;;;;14.18;7.40;;;;;;;2.55;100.00;96000.56;5132542;27;20280;-78
2023/01/02 01:57:39;;;;;;;18.10;8.15;;;;;;;2.58;100.00;95997.41;5122896;27;20237;-77
2023/01/02 02:00:08;;;;;;;15.32;7.38;;;;;;;2.59;100.00;95999.81;5111292;28;20194;-78
2023/01/02 02:02:35;;;;;;;16.33;7.13;;;;;;;2.40;100.00;95998.44;5125013;27;20225;-77
2023/01/02 02:05:06;;;;;;;16.75;8.48;;;;;;;2.49;100.00;95989.75;5123000;27;20253;-77
2023/01/02 02:07:39;;;;;;;23.67;9.23;;;;;;;2.51;100.00;95992.19;5126601;27;20202;-78
2023/01/02 02:10:10;;;;;;;13.30;8.55;;;;;;;2.46;100.00;95986.78;5111183;28;20917;-78
2023/01/02 02:12:37;;;;;;;27.05;11.85;;;;;;;2.39;100.00;95991.47;5118103;27;20197;-78
2023/01/02 02:15:06;;;;;;;25.20;10.85;;;;;;;2.40;100.00;95987.75;5117204;27;20240;-78
2023/01/02 02:17:44;;;;;;;11.25;6.88;;;;;;;2.29;100.00;95991.31;5123800;27;20229;-78
2023/01/02 02:20:24;;;;;;;24.13;10.85;;;;;;;2.27;100.00;95988.06;5125199;27;20739;-78
2023/01/02 02:23:31;;;;;;;22.38;10.60;;;;;;;2.29;100.00;95992.13;5122511;27;20253;-78
2023/01/02 02:26:34;;;;;;;19.30;9.98;;;;;;;2.27;100.00;95994.22;5099368;27;20309;-78
2023/01/02 02:29:38;;;;;;;16.20;9.20;;;;;;;2.36;100.00;95997.28;5119575;27;20193;-78
2023/01/02 02:32:15;;;;;;;12.73;6.68;;;;;;;2.33;100.00;95990.56;5117752;27;20204;-78
2023/01/02 02:34:50;;;;;;;31.38;8.20;;;;;;;2.40;100.00;95993.09;5118054;27;20201;-78
2023/01/02 02:37:24;;;;;;;21.00;10.05;;;;;;;2.45;100.00;95995.84;5122129;27;20225;-78
2023/01/02 02:40:00;;;;;;;24.88;7.95;;;;;;;2.49;100.00;95991.63;5114757;27;20204;-78
2023/01/02 02:42:37;;;;;;;19.13;9.18;;;;;;;2.44;100.00;95997.72;5131073;27;20220;-78
2023/01/02 02:45:14;;;;;;;19.20;8.13;;;;;;;2.41;100.00;96000.88;5131387;27;20663;-77
2023/01/02 02:47:50;;;;;;;16.10;8.43;;;;;;;2.40;100.00;95993.09;5130596;27;20273;-78
2023/01/02 02:50:23;;;;;;;23.17;8.65;;;;;;;2.34;100.00;95984.16;5121037;27;20253;-78
2023/01/02 02:52:58;;;;;;;27.38;8.77;;;;;;;2.39;100.00;95988.78;5124333;27;20196;-78
2023/01/02 02:55:30;;;;;;;56.30;17.52;;;;;;;2.34;100.00;95978.81;5110414;28;20663;-78
2023/01/02 02:57:59;;;;;;;29.60;10.38;;;;;;;2.42;100.00;95978.44;5122176;27;20693;-78
2023/01/02 03:00:26;;;;;;;21.35;9.55;;;;;;;2.35;100.00;95975.09;5117214;27;20703;-79
2023/01/02 03:02:54;;;;;;;25.45;10.23;;;;;;;2.27;100.00;95972.81;5109360;28;20209;-78
2023/01/02 03:08:16;;;;;;;16.83;7.32;;;;;;;2.31;100.00;95973.16;5120699;27;20284;-77
2023/01/02 03:10:49;;;;;;;16.65;7.72;;;;;;;2.27;100.00;95961.31;5126149;27;20258;-79
2023/01/02 03:13:26;;;;;;;20.55;9.45;;;;;;;2.29;100.00;95953.88;5122897;27;20193;-79
2023/01/02 03:16:01;;;;;;;14.57;8.10;;;;;;;2.29;100.00;95956.53;5110042;28;20271;-78
2023/01/02 03:18:35;;;;;;;14.68;6.32;;;;;;;2.27;100.00;95950.63;5125433;27;20347;-77
2023/01/02 03:21:07;;;;;;;12.85;7.10;;;;;;;2.14;100.00;95952.56;5120708;28;20194;-77
2023/01/02 03:23:39;;;;;;;16.30;6.47;;;;;;;2.22;100.00;95948.66;5127590;27;20189;-78
2023/01/02 03:26:06;;;;;;;11.27;6.32;;;;;;;2.38;100.00;95963.09;5118884;27;20247;-77
2023/01/02 03:28:36;;;;;;;13.10;7.13;;;;;;;2.16;100.00;95956.88;5123711;28;20563;-79
2023/01/02 03:31:05;;;;;;;14.00;5.45;;;;;;;2.05;100.00;95964.69;5120983;28;20300;-79
2023/01/02 03:33:39;;;;;;;10.88;5.05;;;;;;;2.06;100.00;95976.19;5124088;28;20249;-77
2023/01/02 03:36:10;;;;;;;14.10;7.13;;;;;;;1.92;100.00;95965.00;5123360;28;20254;-78
2023/01/02 03:38:41;;;;;;;17.23;8.27;;;;;;;1.98;100.00;95971.25;5117390;28;20254;-77
2023/01/02 03:41:11;;;;;;;16.38;7.50;;;;;;;1.98;100.00;95972.06;5116744;28;20705;-78
2023/01/02 03:43:41;;;;;;;11.77;5.30;;;;;;;2.03;100.00;95988.19;5129957;28;20699;-78
2023/01/02 03:46:13;;;;;;;9.13;6.00;;;;;;;2.01;100.00;95979.59;5116171;28;20205;-78
2023/01/02 03:48:45;;;;;;;16.08;6.95;;;;;;;2.03;100.00;95982.03;5120412;28;20645;-77
2023/01/02 03:51:12;;;;;;;8.73;5.72;;;;;;;1.86;100.00;95992.69;5123805;28;20189;-77
2023/01/02 03:53:40;;;;;;;19.20;8.43;;;;;;;1.95;100.00;95991.22;5121379;28;20254;-77
2023/01/02 03:56:16;;;;;;;10.40;6.15;;;;;;;1.96;100.00;95995.53;5115999;28;20201;-77
2023/01/02 03:58:48;;;;;;;12.13;6.57;;;;;;;1.96;100.00;95995.53;5111211;28;20196;-78
2023/01/02 04:01:22;;;;;;;16.83;6.70;;;;;;;1.95;100.00;95991.22;5120602;27;20197;-77
2023/01/02 04:03:56;;;;;;;17.08;6.22;;;;;;;2.01;100.00;95992.97;5120714;27;20219;-78
2023/01/02 04:06:28;;;;;;;18.77;7.32;;;;;;;1.97;100.00;95999.81;5134484;27;20666;-77
2023/01/02 04:09:04;;;;;;;19.70;6.25;;;;;;;1.98;100.00;95996.09;5120230;27;20197;-77
2023/01/02 04:11:33;;;;;;;16.38;8.30;;;;;;;2.01;100.00;96002.84;5134852;27;20192;-78
2023/01/02 04:14:07;;;;;;;14.07;7.53;;;;;;;1.99;100.00;96005.75;5120223;27;20277;-78
2023/01/02 04:16:36;;;;;;;15.13;6.63;;;;;;;1.89;100.00;96013.59;5120787;27;20257;-77
2023/01/02 04:19:10;;;;;;;22.30;6.72;;;;;;;1.82;100.00;96007.56;5112989;28;20250;-78
2023/01/02 04:21:40;;;;;;;19.00;6.68;;;;;;;1.91;100.00;96011.50;5127399;27;20269;-78
2023/01/02 04:24:10;;;;;;;10.13;4.95;;;;;;;1.85;100.00;96015.09;5113791;28;20205;-77
2023/01/02 04:26:45;;;;;;;10.93;5.10;;;;;;;1.93;100.00;96017.38;5127438;27;20201;-78
2023/01/02 04:29:12;;;;;;;11.60;6.40;;;;;;;1.85;100.00;96022.31;5123391;27;20196;-77
2023/01/02 04:31:44;;;;;;;17.90;8.65;;;;;;;1.75;100.00;96012.25;5120373;27;20306;-78
2023/01/02 04:34:15;;;;;;;9.90;6.10;;;;;;;1.76;100.00;96024.56;5123333;27;20205;-78
2023/01/02 04:36:42;;;;;;;11.18;5.97;;;;;;;1.78;100.00;96027.78;5126317;27;20217;-77
2023/01/02 04:39:09;;;;;;;15.38;6.47;;;;;;;1.83;100.00;96022.53;5125100;27;20253;-78
2023/01/02 04:41:37;;;;;;;11.88;7.07;;;;;;;1.86;100.00;96026.59;5119978;27;20192;-78
2023/01/02 04:44:05;;;;;;;17.80;6.88;;;;;;;1.88;100.00;96022.66;5121045;27;20667;-77
2023/01/02 04:46:31;;;;;;;11.27;5.30;;;;;;;1.81;100.00;96021.97;5132068;27;20686;-79
2023/01/02 04:48:58;;;;;;;12.63;6.05;;;;;;;1.79;100.00;96029.41;5121452;27;20205;-77
2023/01/02 04:51:26;;;;;;;13.13;6.25;;;;;;;1.76;100.00;96030.72;5132804;27;20266;-77
2023/01/02 04:53:53;;;;;;;12.32;5.93;;;;;;;1.78;100.00;96025.09;5120240;27;20819;-79
2023/01/02 04:56:20;;;;;;;18.55;6.97;;;;;;;1.79;100.00;96024.06;5127876;27;20206;-78
2023/01/02 04:58:47;;;;;;;19.15;6.93;;;;;;;1.87;100.00;96022.88;5120146;27;20270;-77
2023/01/02 05:01:16;;;;;;;12.88;5.82;;;;;;;1.71;100.00;96021.78;5120106;27;20705;-77
2023/01/02 05:03:45;;;;;;;12.07;5.82;;;;;;;1.65;100.00;96028.03;5119948;27;20204;-78
2023/01/02 05:06:11;;;;;;;13.43;5.80;;;;;;;1.72;100.00;96023.41;5125513;27;20209;-77
2023/01/02 05:08:40;;;;;;;13.27;4.78;;;;;;;1.69;100.00;96023.88;5126475;27;20208;-78
2023/01/02 05:11:09;;;;;;;16.77;6.43;;;;;;;1.66;100.00;96019.00;5120378;27;20205;-77
2023/01/02 05:13:36;;;;;;;10.82;5.53;;;;;;;1.62;100.00;96023.19;5117416;27;20258;-77
2023/01/02 05:16:03;;;;;;;8.93;4.15;;;;;;;1.72;100.00;96018.06;5121997;27;20281;-77
2023/01/02 05:18:30;;;;;;;10.73;6.32;;;;;;;1.79;100.00;96019.53;5130428;27;20264;-78
2023/01/02 05:21:01;;;;;;;15.00;5.28;;;;;;;1.76;100.00;96024.56;5121610;27;20209;-77
2023/01/02 05:26:14;;;;;;;12.15;5.82;;;;;;;1.74;100.00;96010.63;5120547;27;20200;-77
2023/01/02 05:28:41;;;;;;;23.83;5.05;;;;;;;1.77;100.00;96016.31;5118343;27;20205;-78
2023/01/02 05:31:07;;;;;;;14.00;7.00;;;;;;;1.74;100.00;96010.63;5120015;27;20204;-77
2023/01/02 05:33:34;;;;;;;8.82;5.40;;;;;;;1.74;100.00;96005.28;5126157;27;20211;-78
2023/01/02 05:36:01;;;;;;;16.50;6.28;;;;;;;1.78;100.00;96011.75;5125721;27;20205;-77
2023/01/02 05:38:30;;;;;;;10.43;4.53;;;;;;;1.50;100.00;96017.09;5125511;27;20256;-78
2023/01/02 05:41:01;;;;;;;9.45;5.47;;;;;;;1.39;100.00;96013.38;5125656;27;20246;-79
2023/01/02 05:43:32;;;;;;;12.02;5.50;;;;;;;1.45;100.00;96008.97;5119211;27;20695;-77
2023/01/02 05:45:58;;;;;;;15.23;5.82;;;;;;;1.49;100.00;96002.13;5117549;27;20305;-77
2023/01/02 05:48:25;;;;;;;10.38;3.45;;;;;;;1.67;100.00;96004.59;5119838;27;20257;-77
2023/01/02 05:50:52;;;;;;;8.57;4.85;;;;;;;1.74;100.00;96011.44;5131983;27;20201;-77
2023/01/02 05:53:19;;;;;;;18.17;6.40;;;;;;;1.71;100.00;96005.75;5124064;27;20193;-77
2023/01/02 05:55:46;;;;;;;10.55;6.57;;;;;;;1.68;100.00;96016.91;5125867;27;20197;-77
2023/01/02 05:58:16;;;;;;;10.65;4.47;;;;;;;1.67;100.00;96020.63;5129259;27;20217;-77
2023/01/02 06:00:44;;;;;;;11.05;4.85;;;;;;;1.67;100.00;96012.59;5118578;27;20205;-78
2023/01/02 06:03:10;;;;;;;11.75;4.70;;;;;;;1.58;100.00;96011.38;5131776;27;20929;-78
2023/01/02 06:05:37;;;;;;;8.20;5.35;;;;;;;1.66;100.00;96019.00;5131755;27;20197;-78
2023/01/02 06:08:04;;;;;;;17.58;6.65;;;;;;;1.55;100.00;96014.50;5122510;27;20684;-77
2023/01/02 06:10:31;;;;;;;12.27;5.88;;;;;;;1.71;100.00;96030.59;5114410;27;20205;-77
2023/01/02 06:12:57;;;;;;;15.25;6.70;;;;;;;1.90;100.00;96031.25;5122369;27;20202;-76
2023/01/02 06:15:24;;;;;;;11.75;4.88;;;;;;;5.77;100.00;96016.66;5113949;27;20233;-78
2023/01/02 06:17:52;;;;;;;10.27;5.45;;;;;;;7.44;100.00;96011.44;5122798;27;20272;-78
2023/01/02 06:20:19;;;;;;;12.57;7.68;;;;;;;7.99;89.71;96009.63;5125667;27;20197;-77
2023/01/02 06:22:46;;;;;;;12.55;6.47;;;;;;;6.48;87.24;96024.16;5120765;27;20806;-78
2023/01/02 06:25:12;;;;;;;14.02;8.15;;;;;;;5.50;88.22;96035.63;5122128;27;20663;-78
2023/01/02 06:27:39;;;;;;;14.85;6.90;;;;;;;4.27;91.24;96041.09;5122181;27;20251;-78
2023/01/02 06:30:07;;;;;;;15.05;7.55;;;;;;;3.75;95.02;96054.19;5121439;27;20201;-78
2023/01/02 06:32:34;;;;;;;22.52;10.77;;;;;;;3.37;94.99;96051.56;5119941;27;20219;-78
2023/01/02 06:35:02;;;;;;;19.83;9.25;;;;;;;3.01;97.42;96052.88;5120195;27;20245;-78
2023/01/02 06:37:29;;;;;;;21.15;8.85;;;;;;;2.42;99.80;96052.50;5121166;27;20270;-78
2023/01/02 06:39:56;;;;;;;18.52;8.05;;;;;;;2.49;100.00;96055.81;5121373;27;20194;-79
2023/01/02 06:42:22;;;;;;;20.83;10.77;;;;;;;2.44;100.00;96053.06;5121649;27;20217;-78
2023/01/02 06:44:49;;;;;;;15.63;7.85;;;;;;;2.49;100.00;96050.47;5115426;27;20194;-78
2023/01/02 06:47:16;;;;;;;17.55;8.77;;;;;;;2.39;100.00;96048.44;5125700;27;20197;-78
2023/01/02 06:49:42;;;;;;;21.92;9.07;;;;;;;2.48;100.00;96046.16;5118455;27;20297;-78
2023/01/02 06:52:11;;;;;;;22.25;9.38;;;;;;;2.58;100.00;96054.38;5122829;27;20653;-78
2023/01/02 06:54:37;;;;;;;17.88;9.27;;;;;;;2.58;100.00;96048.22;5120426;27;20246;-79
2023/01/02 06:57:04;;;;;;;19.85;6.80;;;;;;;2.49;100.00;96040.56;5120264;27;20199;-79
2023/01/02 06:59:31;;;;;;;11.60;7.47;;;;;;;2.47;100.00;96049.88;5119004;27;20236;-79
2023/01/02 07:01:58;;;;;;;15.02;7.55;;;;;;;2.47;100.00;96048.03;5121251;27;20193;-80
2023/01/02 07:04:24;;;;;;;23.88;13.18;;;;;;;2.35;100.00;96057.16;5118177;27;20194;-79
2023/01/02 07:06:51;;;;;;;17.65;9.77;;;;;;;2.43;100.00;96052.25;5121645;27;20197;-78
2023/01/02 07:09:19;;;;;;;14.77;7.80;;;;;;;2.39;100.00;96044.94;5116839;27;20193;-79
2023/01/02 07:11:46;;;;;;;33.22;9.98;;;;;;;2.28;100.00;96043.97;5120757;27;20192;-79
2023/01/02 07:14:13;;;;;;;18.80;10.13;;;;;;;2.38;100.00;96054.81;5119134;27;20229;-79
2023/01/02 07:16:40;;;;;;;16.20;10.45;;;;;;;2.38;100.00;96054.81;5120004;27;20186;-77
2023/01/02 07:19:06;;;;;;;19.25;7.88;;;;;;;2.57;100.00;96051.94;5121122;27;20220;-79
2023/01/02 07:21:33;;;;;;;22.25;12.10;;;;;;;2.65;100.00;96054.19;5118389;27;20797;-78
2023/01/02 07:24:00;;;;;;;24.02;10.10;;;;;;;2.70;100.00;96044.41;5122917;27;20198;-79
2023/01/02 07:26:28;;;;;;;19.83;10.90;;;;;;;2.91;100.00;96052.75;5120055;27;20186;-79
2023/01/02 07:28:55;;;;;;;28.30;11.00;;;;;;;2.78;100.00;96054.69;5120772;28;20327;-80
2023/01/02 07:31:22;;;;;;;28.55;12.10;;;;;;;2.90;100.00;96051.13;5120656;28;20197;-81
2023/01/02 07:33:49;;;;;;;24.73;10.20;;;;;;;2.81;100.00;96048.84;5124788;27;20189;-81
2023/01/02 07:36:17;;;;;;;16.50;8.55;;;;;;;2.85;100.00;96055.34;5128354;28;20205;-81
2023/01/02 07:38:45;;;;;;;18.42;10.57;;;;;;;3.00;100.00;96053.97;5111680;28;20236;-80
2023/01/02 07:41:14;;;;;;;28.45;9.65;;;;;;;3.09;100.00;96057.84;5117848;27;20254;-81
2023/01/02 07:43:43;;;;;;;21.08;10.20;;;;;;;3.08;100.00;96056.22;5123170;28;20204;-81
2023/01/02 07:46:10;;;;;;;19.15;9.10;;;;;;;3.09;100.00;96050.63;5120650;28;20246;-81
2023/01/02 07:48:37;;;;;;;15.68;7.32;;;;;;;3.09;100.00;96055.16;5113820;28;20422;-81
2023/01/02 07:51:05;;;;;;;18.92;9.65;;;;;;;3.20;99.88;96055.06;5115918;28;20200;-80
2023/01/02 07:53:32;;;;;;;24.52;10.25;;;;;;;3.22;100.00;96055.63;5123318;28;20698;-80
2023/01/02 07:56:01;;;;;;;25.60;11.32;;;;;;;3.28;100.00;96059.19;5120201;28;20238;-80
2023/01/02 07:58:28;;;;;;;19.75;8.40;;;;;;;3.43;99.80;96059.41;5122147;28;20736;-80
2023/01/02 08:00:57;;;;;;;23.27;10.65;;;;;;;3.60;99.86;96063.91;5131369;28;20197;-79
2023/01/02 08:03:24;;;;;;;23.80;10.48;;;;;;;3.74;99.28;96067.84;5125611;28;20215;-79
2023/01/02 08:05:51;;;;;;;21.25;8.55;;;;;;;3.99;98.24;96059.28;5118258;28;20193;-85
2023/01/02 08:08:18;;;;;;;20.55;9.75;;;;;;;4.21;97.34;96058.22;5113948;28;20599;-84
2023/01/02 08:10:45;;;;;;;20.35;10.40;;;;;;;4.21;96.11;96055.53;5121616;28;20201;-83
2023/01/02 08:13:12;;;;;;;16.75;9.88;;;;;;;4.38;96.92;96050.06;5129635;27;20281;-83
2023/01/02 08:15:38;;;;;;;16.38;9.50;;;;;;;4.48;95.76;96046.69;5125189;27;20225;-83
2023/01/02 08:18:07;;;;;;;15.15;9.57;;;;;;;4.58;95.02;96052.94;5112933;28;20233;-83
2023/01/02 08:20:34;;;;;;;21.80;10.55;;;;;;;4.68;95.36;96046.84;5127334;28;20208;-86
2023/01/02 08:23:00;;;;;;;21.45;11.60;;;;;;;4.84;94.79;96037.88;5126990;28;20190;-86
2023/01/02 08:25:27;;;;;;;16.65;8.55;;;;;;;5.08;94.59;96045.56;5120898;28;20766;-79
2023/01/02 08:27:54;;;;;;;19.30;9.98;;;;;;;5.22;93.43;96046.72;5117199;28;20205;-80
2023/01/02 08:30:20;;;;;;;22.35;9.38;;;;;;;5.15;93.23;96046.16;5123523;28;20197;-80
2023/01/02 08:32:47;;;;;;;16.55;8.25;;;;;;;5.37;94.24;96038.78;5122456;28;20261;-80
2023/01/02 08:35:16;;;;;;;21.73;11.13;;;;;;;5.39;92.86;96035.81;5115983;28;20273;-80
2023/01/02 08:37:42;;;;;;;29.63;11.23;;;;;;;5.37;93.65;96038.78;5130197;28;20197;-80
2023/01/02 08:40:10;;;;;;;29.23;11.43;;;;;;;5.56;91.79;96042.66;5115296;28;20201;-80
2023/01/02 08:42:37;;;;;;;27.30;13.40;;;;;;;5.60;91.44;96038.34;5116663;28;20205;-81
2023/01/02 08:45:05;;;;;;;18.40;9.50;;;;;;;5.82;91.12;96037.41;5116377;27;20197;-80
2023/01/02 08:47:32;;;;;;;25.02;12.93;;;;;;;5.84;90.29;96036.06;5122355;27;20280;-80
2023/01/02 08:49:58;;;;;;;33.10;13.10;;;;;;;5.89;89.17;96035.28;5125244;27;20246;-81
2023/01/02 08:52:26;;;;;;;29.75;9.98;;;;;;;6.07;88.54;96029.44;5121633;27;20605;-84
2023/01/02 08:54:53;;;;;;;22.05;10.10;;;;;;;6.21;89.18;96033.25;5122971;27;20193;-80
2023/01/02 08:57:22;;;;;;;23.55;10.85;;;;;;;6.18;88.54;96023.00;5122527;27;20538;-80
2023/01/02 08:59:49;;;;;;;27.92;9.85;;;;;;;6.46;88.99;96018.22;5121383;27;20216;-79
2023/01/02 09:02:16;;;;;;;29.42;12.00;;;;;;;6.45;88.43;96011.22;5122241;27;20216;-81
2023/01/02 09:04:43;;;;;;;15.25;9.05;;;;;;;6.63;88.24;96013.41;5122520;27;20345;-81
2023/01/02 09:07:10;;;;;;;16.20;8.00;;;;;;;6.60;85.64;96008.56;5117820;27;20724;-81
2023/01/02 09:09:38;;;;;;;17.45;9.02;;;;;;;6.68;85.43;96008.03;5121347;27;20197;-80
2023/01/02 09:12:05;;;;;;;23.50;10.23;;;;;;;6.87;84.96;96003.72;5127104;27;20241;-79
2023/01/02 09:14:32;;;;;;;14.10;8.35;;;;;;;6.94;84.53;96001.56;5121354;27;20234;-78
2023/01/02 09:16:58;;;;;;;20.67;10.70;;;;;;;7.08;85.13;95989.16;5122595;27;20250;-77
2023/01/02 09:19:26;;;;;;;15.40;8.82;;;;;;;7.10;83.17;95992.41;5122211;27;20220;-78
2023/01/02 09:21:53;;;;;;;28.15;13.25;;;;;;;7.03;83.57;95986.47;5120002;27;20714;-78
2023/01/02 09:24:20;;;;;;;16.95;9.57;;;;;;;7.07;82.93;95982.16;5124613;27;20250;-79
2023/01/02 09:26:49;;;;;;;23.70;10.20;;;;;;;7.10;82.90;95981.63;5128563;27;20728;-78
2023/01/02 09:29:16;;;;;;;17.23;7.85;;;;;;;7.13;83.89;95978.34;5117589;27;20197;-78
2023/01/02 09:31:43;;;;;;;16.95;8.35;;;;;;;7.25;83.46;95978.06;5115515;27;20556;-79
2023/01/02 09:34:09;;;;;;;16.55;9.18;;;;;;;7.36;82.92;95962.69;5119136;27;20601;-79
2023/01/02 09:36:36;;;;;;;24.73;8.65;;;;;;;7.55;82.40;95961.00;5122463;27;20222;-79
2023/01/02 09:39:04;;;;;;;21.20;9.00;;;;;;;7.62;82.71;95956.13;5111513;28;20225;-79
2023/01/02 09:41:34;;;;;;;17.02;9.13;;;;;;;7.56;82.39;95946.44;5123820;27;20536;-79
2023/01/02 09:44:10;;;;;;;16.58;9.45;;;;;;;7.59;83.22;95940.50;5124682;27;20241;-80
2023/01/02 09:46:43;;;;;;;17.85;8.85;;;;;;;7.96;81.90;95950.81;5114503;27;20690;-79
2023/01/02 09:49:14;;;;;;;19.60;8.07;;;;;;;8.31;81.10;95936.31;5112013;27;20197;-79
2023/01/02 09:51:41;;;;;;;18.52;8.80;;;;;;;8.46;79.87;95928.16;5114088;27;20602;-80
2023/01/02 09:54:18;;;;;;;20.50;10.27;;;;;;;8.50;78.90;95934.56;5118926;27;20193;-77
2023/01/02 09:56:49;;;;;;;16.50;8.70;;;;;;;8.41;78.98;95930.88;5130543;27;20235;-79
2023/01/02 09:59:25;;;;;;;22.00;10.18;;;;;;;8.48;78.69;95931.34;5117827;27;20679;-79
2023/01/02 10:01:59;;;;;;;20.67;9.23;;;;;;;8.35;78.84;95921.19;5119466;27;20626;-80
2023/01/02 10:04:41;;;;;;;20.55;10.80;;;;;;;8.51;79.43;95919.97;5125195;27;20212;-77
2023/01/02 10:07:11;;;;;;;33.35;11.00;;;;;;;8.72;78.10;95914.41;5123698;27;20186;-78
2023/01/02 10:09:49;;;;;;;20.27;9.27;;;;;;;8.71;77.85;95910.91;5130093;27;20193;-83
2023/01/02 10:12:23;;;;;;;23.42;10.70;;;;;;;8.64;78.20;95909.63;5117209;27;20227;-80
2023/01/02 10:14:56;;;;;;;9.90;6.07;;;;;;;8.59;78.20;95898.88;5119306;27;20289;-77
2023/01/02 10:17:24;;;;;;;30.35;15.68;;;;;;;8.75;78.23;95900.31;5124208;27;20200;-76
2023/01/02 10:19:56;;;;;;;21.48;10.13;;;;;;;8.80;77.53;95884.88;5123420;27;20609;-79
2023/01/02 10:22:28;;;;;;;23.23;10.38;;;;;;;8.93;77.20;95896.91;5128618;27;20205;-77
2023/01/02 10:25:01;;;;;;;19.20;9.85;;;;;;;8.86;77.73;95888.34;5117368;27;20259;-79
2023/01/02 10:27:36;;;;;;;26.60;12.43;;;;;;;8.98;77.50;95885.25;5122389;27;20266;-80
2023/01/02 10:30:14;;;;;;;30.67;11.63;;;;;;;8.96;77.07;95876.63;5124125;27;20589;-79
2023/01/02 10:32:44;;;;;;;22.50;10.98;;;;;;;9.04;77.55;95879.50;5125272;27;20857;-81
2023/01/02 10:35:21;;;;;;;27.75;11.57;;;;;;;9.09;77.50;95881.34;5120503;27;20663;-86
2023/01/02 10:37:48;;;;;;;21.63;10.40;;;;;;;9.19;76.25;95881.22;5119636;27;20271;-78
2023/01/02 10:40:15;;;;;;;25.05;11.15;;;;;;;9.31;76.11;95878.13;5115116;27;20233;-77
2023/01/02 10:42:45;;;;;;;26.35;12.30;;;;;;;9.39;75.40;95875.59;5114950;27;20197;-77
2023/01/02 10:45:19;;;;;;;24.30;10.50;;;;;;;9.46;75.00;95865.22;5117971;27;20189;-76
2023/01/02 10:47:45;;;;;;;21.33;11.55;;;;;;;9.35;75.78;95873.75;5120932;27;20196;-78
2023/01/02 10:50:20;;;;;;;21.73;9.48;;;;;;;9.39;75.52;95861.28;5122902;27;20198;-77
2023/01/02 10:52:49;;;;;;;27.30;12.80;;;;;;;9.32;75.34;95866.22;5127086;27;20197;-77
2023/01/02 10:55:30;;;;;;;23.48;11.90;;;;;;;9.39;75.17;95859.38;5120651;27;20853;-75
2023/01/02 10:58:03;;;;;;;28.55;13.80;;;;;;;9.33;75.36;95859.72;5113378;27;20193;-76
2023/01/02 11:00:33;;;;;;;35.05;15.52;;;;;;;9.35;75.42;95842.09;5122257;27;20218;-76
2023/01/02 11:03:06;;;;;;;24.98;11.95;;;;;;;9.33;75.25;95849.69;5116386;27;20660;-78
2023/01/02 11:05:33;;;;;;;44.60;24.35;;;;;;;9.35;75.30;95841.31;5113817;27;20693;-77
2023/01/02 11:08:00;;;;;;;29.65;14.50;;;;;;;9.31;74.68;95829.44;5108582;27;20610;-77
2023/01/02 11:10:29;;;;;;;34.67;15.25;;;;;;;9.36;74.52;95832.09;5115178;27;20217;-76
2023/01/02 11:13:01;;;;;;;32.17;14.88;;;;;;;9.39;74.53;95831.53;5112173;27;20199;-75
2023/01/02 11:15:33;;;;;;;34.47;15.07;;;;;;;9.52;73.86;95820.78;5117420;27;20225;-75
2023/01/02 11:18:02;;;;;;;33.63;15.05;;;;;;;9.40;74.09;95819.63;5114982;27;20204;-77
2023/01/02 11:20:31;;;;;;;38.13;16.42;;;;;;;9.55;73.91;95814.00;5112749;27;20225;-77
2023/01/02 11:23:01;;;;;;;31.63;13.77;;;;;;;9.72;73.41;95816.97;5121744;28;20560;-77
2023/01/02 11:25:32;;;;;;;37.22;15.60;;;;;;;9.73;73.44;95807.78;5124784;27;20279;-78
2023/01/02 11:28:00;;;;;;;30.65;14.85;;;;;;;9.79;73.00;95809.31;5116631;27;20201;-77
2023/01/02 11:30:33;;;;;;;27.65;13.27;;;;;;;9.74;73.12;95814.78;5127949;27;20268;-78
2023/01/02 11:33:18;;;;;;;28.42;13.75;;;;;;;9.83;73.02;95804.94;5116800;28;20271;-77
2023/01/02 11:35:47;;;;;;;28.83;12.93;;;;;;;9.92;72.97;95797.75;5097073;28;20251;-78
2023/01/02 11:38:16;;;;;;;29.92;13.85;;;;;;;9.73;73.23;95794.25;5118860;28;20262;-77
2023/01/02 11:40:55;;;;;;;27.00;15.10;;;;;;;9.88;73.14;95795.91;5125177;28;20435;-77
2023/01/02 11:46:26;;;;;;;29.20;14.18;;;;;;;10.13;72.52;95781.16;5123876;28;20678;-77